Kezdőlap
METAR-TAF:

METAR-TAF

Repülőterek :

Riga, Lettország

földrajzi szélesség: 56-55N, földrajzi hosszúság: 023-58E, magasság: 10 m

Jelenlegi meteorológiai megfigyelések

A jelentés 26 perccel ezelõtt készült, 20:50 UTC
Nyugat-északnyugati szél 4 kt, nyugati és észak-északnyugati között változik
Hőmérséklet 7°C
Páratartalom 81%
Légköri nyomás 1010 hPa
Látótávolság 10 km, vagy több
felhőtlen 1500 m magasságban, és nincs gomolyfelhõ

METAR: EVRA 212050Z 29004KT 270V330 CAVOK 07/04 Q1010 NOSIG

Idő: 00:16 (21:16 UTC)

Előrejelzés

A jelentés 1 órával és 16 perccel ezelõtt készült, 20:00 UTC
Az előrejelzés 21-én 21 óra UTC és 22-én 21 óra UTC között érvényes
Nyugati szél 7 kt
Látótávolság 10 km, vagy több
Szórványos felhőzet 2000 lábon
22-én 06 óra UTC és 22-én 08 óra UTC között fokozatosan kialakuló
Északnyugati szél 10 kt

TAF: EVRA 212000Z 2121/2221 26007KT 9999 SCT020 BECMG 2206/2208 32010KT

Meteorológiai megfigyelések és előrejelzések több, mint 4000 repülőtéren (METAR és TAF jelentéseket).

A térképen piros és sárga pontok jelzik az elérhető meteorológiai állomásokat.

Mozgassa az egeret a pont fölött, hogy megjelenjen az állomás neve.

Azután kattintson az időjárási megfigyelések és előrejelzések megtekintéséhez.

A térkép megváltoztatása: kattintson a fekete keresztel jelölt zöld gombra ráközelítéshez, a vonallal jelölt zöld gombra távolításhoz, vagy a zöld nyilakra a szomszédos térképek eléréséhez.


METAR-TAF: